Flight Track Log - Related Links

Times and Time Zones

All times are in EDT time to prevent confusion due to time zone crossing. See the RPA3253 flight status page for this flight to view local times or setup timezone preferences in your user account.

Time Position Orientation Groundspeed Altitude Reporting Facility
EDT Latitude Longitude Course Direction KTS MPH feet Rate Location/Type
Sun 07:22:58 PM 42.7483 -73.8339 169° South 154 177 1,500  Level Boston Center
Sun 07:23:40 PM 42.7478 -73.8819 269° West 182 209 2,600 2,250 Climbing Boston Center
Sun 07:25:00 PM 42.5138 -74.0575 171° South  Level Estimated
Sun 07:25:06 PM 42.8092 -73.9569 318° Northwest 237 273 6,300  Level Boston Center
Sun 07:26:00 PM 42.4353 -74.1422 180° South  Level Estimated
Sun 07:26:06 PM 42.8564 -74.0119 320° Northwest 237 273 9,300  Level Boston Center
Sun 07:27:00 PM 42.3567 -74.2268 170° South  Level Estimated
Sun 07:27:06 PM 42.8636 -74.0914 277° West 210 242 11,200  Level Boston Center
Sun 07:28:00 PM 42.2780 -74.3111 169° South  Level Estimated
Sun 07:28:06 PM 42.8078 -74.1919 233° Southwest 241 277 13,500  Level Boston Center
Sun 07:29:06 PM 42.7586 -74.2783 232° Southwest 308 354 15,600 2,150 Climbing Boston Center
Sun 07:30:06 PM 42.6608 -74.2697 176° South 308 354 17,800 1,800 Climbing Boston Center
Sun 07:31:06 PM 42.5806 -74.2108 152° Southeast 323 372 19,200 1,650 Climbing Boston Center
Sun 07:32:06 PM 42.4878 -74.1378 150° Southeast 346 398 21,100 1,800 Climbing Boston Center
Sun 07:33:06 PM 42.3928 -74.0678 151° Southeast 374 430 22,800 1,600 Climbing Boston Center
Sun 07:34:06 PM 42.2939 -73.9950 151° Southeast 390 449 24,300 1,450 Climbing Boston Center
Sun 07:35:06 PM 42.2031 -73.9256 150° Southeast 409 471 25,700 1,500 Climbing Boston Center
Sun 07:36:06 PM 42.0814 -73.8358 151° Southeast 415 478 27,300 1,300 Climbing Boston Center
Sun 07:37:06 PM 41.9781 -73.7583 151° Southeast 415 478 28,300 650 Climbing Boston Center
Sun 07:38:06 PM 41.8617 -73.7306 170° South 415 478 28,600 550 Climbing Boston Center
Sun 07:39:06 PM 41.7406 -73.7367 182° South 420 483 29,400 974 Climbing Boston Center
Sun 07:40:40 PM 41.5633 -73.7572 185° South 459 528 31,100 1,208 Climbing New York Center
Sun 07:41:40 PM 41.4297 -73.7706 184° South 448 516 32,500 1,289 Climbing New York Center
Sun 07:42:41 PM 41.3106 -73.7819 184° South 442 509 33,700 750 Climbing New York Center
Sun 07:43:40 PM 41.1958 -73.7986 186° South 430 495 34,000 102 Climbing New York Center
Sun 07:44:39 PM 41.1039 -73.8856 215° Southwest 391 450 33,900  Descending New York Center
Sun 07:45:39 PM 41.0297 -74.0086 231° Southwest 400 460 34,000 49 Climbing New York Center
Sun 07:46:41 PM 40.9575 -74.1314 232° Southwest 410 472 34,000  Level New York Center
Sun 07:47:40 PM 40.8922 -74.2325 230° Southwest 415 478 34,000  Level New York Center
Sun 07:48:40 PM 40.8197 -74.3550 232° Southwest 420 483 34,000  Level New York Center
Sun 07:49:42 PM 40.7475 -74.4717 231° Southwest 420 483 34,000  Level New York Center
Sun 07:50:40 PM 40.6747 -74.5936 232° Southwest 426 490 34,000  Level New York Center
Sun 07:51:42 PM 40.6019 -74.7125 231° Southwest 426 490 34,000  Level New York Center
Sun 07:52:39 PM 40.5275 -74.8231 228° Southwest 431 496 34,000  Level New York Center
Sun 07:53:39 PM 40.4464 -74.9356 227° Southwest 431 496 34,000  Level New York Center
Sun 07:54:40 PM 40.3694 -75.0478 228° Southwest 426 490 34,000  Level New York Center
Sun 07:55:41 PM 40.2906 -75.1572 227° Southwest 426 490 34,000  Level New York Center
Sun 07:56:39 PM 40.2133 -75.2667 227° Southwest 426 490 34,000  Level New York Center
Sun 07:57:40 PM 40.1342 -75.3756 226° Southwest 426 490 34,000  Level New York Center
Sun 07:58:40 PM 40.0567 -75.4869 228° Southwest 426 490 34,000  Level New York Center
Sun 07:59:40 PM 39.9772 -75.5956 226° Southwest 426 490 34,000  Level New York Center
Sun 08:00:41 PM 39.9019 -75.7039 228° Southwest 426 490 34,000  Level New York Center
Sun 08:01:41 PM 39.8281 -75.8231 231° Southwest 421 484 34,000  Level New York Center
Sun 08:02:39 PM 39.7567 -75.9342 230° Southwest 415 478 34,000  Level New York Center
Sun 08:03:39 PM 39.6828 -76.0472 230° Southwest 415 478 34,000  Level New York Center
Sun 08:04:41 PM 39.6150 -76.1636 233° Southwest 415 478 34,000  Level New York Center
Sun 08:05:40 PM 39.5281 -76.2861 227° Southwest 415 478 34,000  Level New York Center
Sun 08:06:38 PM 39.4672 -76.3844 231° Southwest 402 463 34,000  Level Washington Center
Sun 08:07:39 PM 39.3936 -76.4939 229° Southwest 397 457 34,000  Level Washington Center
Sun 08:08:39 PM 39.3197 -76.6164 232° Southwest 402 463 34,000  Level Washington Center
Sun 08:09:40 PM 39.2458 -76.7253 229° Southwest 402 463 34,000  Level Washington Center
Sun 08:10:38 PM 39.1781 -76.8314 231° Southwest 397 457 34,000  Level Washington Center
Sun 08:11:39 PM 39.1081 -76.9425 231° Southwest 402 463 34,000  Level Washington Center
Sun 08:12:40 PM 39.0339 -77.0481 228° Southwest 402 463 34,000  Level Washington Center
Sun 08:13:41 PM 38.9514 -77.1397 221° Southwest 402 463 34,000  Level Washington Center
Sun 08:14:39 PM 38.8667 -77.2339 221° Southwest 402 463 34,000  Level Washington Center
Sun 08:15:39 PM 38.7928 -77.3122 220° Southwest 397 457 34,000  Level Washington Center
Sun 08:16:40 PM 38.7100 -77.4033 221° Southwest 397 457 34,000  Level Washington Center
Sun 08:17:40 PM 38.6272 -77.4944 221° Southwest 397 457 34,000  Level Washington Center
Sun 08:18:38 PM 38.5425 -77.5853 220° Southwest 397 457 34,000  Level Washington Center
Sun 08:19:38 PM 38.4597 -77.6758 221° Southwest 397 457 34,000  Level Washington Center
Sun 08:20:39 PM 38.3767 -77.7661 220° Southwest 397 457 34,000  Level Washington Center
Sun 08:21:40 PM 38.2936 -77.8564 220° Southwest 397 457 34,000  Level Washington Center
Sun 08:22:38 PM 38.2106 -77.9464 220° Southwest 397 457 34,000  Level Washington Center
Sun 08:23:39 PM 38.1297 -78.0336 220° Southwest 397 457 34,000  Level Washington Center
Sun 08:24:39 PM 38.0464 -78.1231 220° Southwest 397 457 34,000  Level Washington Center
Sun 08:25:40 PM 37.9672 -78.2258 226° Southwest 387 445 34,000  Level Washington Center
Sun 08:26:38 PM 37.8958 -78.3286 229° Southwest 387 445 34,000  Level Washington Center
Sun 08:27:38 PM 37.8314 -78.4208 229° Southwest 395 455 34,000  Level Washington Center
Sun 08:28:39 PM 37.7519 -78.5097 222° Southwest 395 455 34,000  Level Washington Center
Sun 08:29:39 PM 37.6686 -78.5958 219° Southwest 390 449 34,000  Level Washington Center
Sun 08:30:40 PM 37.5764 -78.6917 219° Southwest 390 449 34,000 -303 Level Washington Center
Sun 08:31:38 PM 37.4925 -78.7825 221° Southwest 397 457 33,400 -807 Descending Washington Center
Sun 08:32:39 PM 37.4067 -78.8783 222° Southwest 403 464 32,400 -689 Descending Washington Center
Sun 08:33:40 PM 37.3164 -78.9683 218° Southwest 409 471 32,000 -202 Descending Washington Center
Sun 08:34:38 PM 37.2283 -79.0583 219° Southwest 409 471 32,000  Level Washington Center
Sun 08:35:39 PM 37.1486 -79.1436 220° Southwest 414 476 32,000  Level Washington Center
Sun 08:36:39 PM 37.0644 -79.2358 221° Southwest 414 476 32,000  Level Washington Center
Sun 08:37:40 PM 36.9719 -79.3278 218° Southwest 414 476 32,000  Level Washington Center
Sun 08:38:38 PM 36.8836 -79.4222 221° Southwest 414 476 32,000 -102 Level Washington Center
Sun 08:39:38 PM 36.7864 -79.5236 220° Southwest 414 476 31,800 -992 Descending Washington Center
Sun 08:40:39 PM 36.6997 -79.6150 220° Southwest 419 482 30,000 -1,869 Descending Washington Center
Sun 08:41:40 PM 36.6089 -79.7086 220° Southwest 419 482 28,000 -1,592 Descending Washington Center
Sun 08:43:06 PM 36.4847 -79.8325 219° Southwest 434 499 26,100 -1,644 Descending Atlanta Center
Sun 08:44:06 PM 36.3981 -79.9222 220° Southwest 427 491 24,000 -2,050 Descending Atlanta Center
Sun 08:45:06 PM 36.3050 -80.0119 218° Southwest 414 476 22,000 -1,500 Descending Atlanta Center
Sun 08:46:06 PM 36.2158 -80.0936 216° Southwest 406 467 21,000 -1,500 Descending Atlanta Center
Sun 08:47:06 PM 36.1286 -80.1672 214° Southwest 401 461 19,000 -1,850 Descending Atlanta Center
Sun 08:48:06 PM 36.0433 -80.2381 214° Southwest 390 449 17,300 -1,800 Descending Atlanta Center
Sun 08:49:06 PM 35.9700 -80.2981 214° Southwest 380 437 15,400 -1,895 Descending Atlanta Center
Sun 08:49:41 PM 35.9214 -80.3489 220° Southwest 340 391 14,300 -1,190 Descending Atlanta Center
Sun 08:51:07 PM 35.8175 -80.4331 213° Southwest 290 334 13,000 -745 Descending Atlanta Center
Sun 08:52:06 PM 35.7583 -80.4792 212° Southwest 303 349 12,500 -706 Descending Atlanta Center
Sun 08:53:06 PM 35.7022 -80.5531 227° Southwest 293 337 11,600 -1,026 Descending Atlanta Center
Sun 08:54:03 PM 35.6608 -80.6419 240° Southwest 289 333 10,500 -1,100 Descending Atlanta Center
Sun 08:55:06 PM 35.6214 -80.7303 241° Southwest 293 337 9,400 -1,073 Descending Atlanta Center
Sun 08:56:06 PM 35.5861 -80.8161 243° Southwest 288 331 8,300 -1,150 Descending Atlanta Center
Sun 08:57:06 PM 35.5467 -80.8967 239° Southwest 288 331 7,100 -1,200 Descending Atlanta Center
Sun 08:58:06 PM 35.4806 -80.9300 202° Southwest 256 295 5,900 -1,250 Descending Atlanta Center
Sun 08:59:06 PM 35.4189 -80.9578 200° South 251 289 4,600 -1,220 Descending Atlanta Center
Sun 09:00:09 PM 35.3567 -80.9703 189° South 187 215 3,400 -1,059 Descending Atlanta Center
Sun 09:01:22 PM 35.3042 -80.9619 173° South 152 175 2,200 -844 Descending Atlanta Center
Sun 09:02:17 PM 35.2706 -80.9581 175° South 128 147 1,600 -655 Descending Atlanta Center

Login

Don't have an account? Register now (free) for customized features, flight alerts, and more!